Time;durP1;ratioP1;P1;durP2;ratioP2;P2;SDS_P1;SDS_P2;PMS_P1;PMS_P2;Temp;Humidity;BMP_temperature;BMP_pressure;BME280_temperature;BME280_humidity;BME280_pressure;Samples;Min_cycle;Max_cycle;Signal;HPM_P1;HPM_P2
2022/11/16 00:01:39;;;;;;;6.15;3.33;;;10.10;99.90;;;;;;5095811;28;20047;-92
2022/11/16 00:04:05;;;;;;;5.55;3.40;;;10.10;99.90;;;;;;5064187;28;20098;-91
2022/11/16 00:06:32;;;;;;;8.00;4.40;;;10.10;99.90;;;;;;5099022;28;20040;-91
2022/11/16 00:12:02;;;;;;;8.32;3.40;;;10.20;99.90;;;;;;5132240;28;20055;-92
2022/11/16 00:14:33;;;;;;;8.93;3.47;;;10.20;99.90;;;;;;5111877;28;20123;-91
2022/11/16 00:17:00;;;;;;;7.32;4.00;;;10.20;99.90;;;;;;5102544;28;20479;-93
2022/11/16 00:19:27;;;;;;;6.43;3.22;;;10.20;99.90;;;;;;5081806;28;20031;-92
2022/11/16 00:21:54;;;;;;;6.03;3.17;;;10.20;99.90;;;;;;5098743;28;20122;-92
2022/11/16 00:24:22;;;;;;;7.28;3.95;;;10.20;99.90;;;;;;5098094;28;20507;-92
2022/11/16 00:26:49;;;;;;;8.32;3.88;;;10.20;99.90;;;;;;5114835;28;20419;-92
2022/11/16 00:29:21;;;;;;;6.80;3.50;;;10.20;99.90;;;;;;5098331;28;20050;-92
2022/11/16 00:31:51;;;;;;;7.95;3.80;;;10.40;99.90;;;;;;5131961;28;20147;-92
2022/11/16 00:34:18;;;;;;;8.25;3.50;;;10.20;99.90;;;;;;5098444;28;20316;-92
2022/11/16 00:36:45;;;;;;;5.53;2.97;;;10.20;99.90;;;;;;5098351;28;20043;-92
2022/11/16 00:39:14;;;;;;;6.72;3.55;;;10.20;99.90;;;;;;5114553;28;20056;-91
2022/11/16 00:41:41;;;;;;;7.78;3.42;;;10.30;99.90;;;;;;5114894;28;20502;-92
2022/11/16 00:44:08;;;;;;;7.32;3.60;;;10.30;99.90;;;;;;5081557;28;20046;-90
2022/11/16 00:46:35;;;;;;;8.38;3.75;;;10.40;99.90;;;;;;5114322;28;20466;-91
2022/11/16 00:49:04;;;;;;;8.55;3.63;;;10.30;99.90;;;;;;5085834;28;20126;-92
2022/11/16 00:51:31;;;;;;;8.98;3.88;;;10.20;99.90;;;;;;5094316;28;20040;-92
2022/11/16 00:53:58;;;;;;;6.70;3.40;;;10.30;99.90;;;;;;5099403;28;20040;-92
2022/11/16 00:56:25;;;;;;;7.47;3.25;;;10.30;99.90;;;;;;5148176;28;20043;-92
2022/11/16 00:58:51;;;;;;;7.18;2.97;;;10.30;99.90;;;;;;5077684;28;20048;-93
2022/11/16 01:01:18;;;;;;;6.32;3.28;;;10.30;99.90;;;;;;5063603;28;20036;-92
2022/11/16 01:03:46;;;;;;;7.93;3.30;;;10.30;99.90;;;;;;5092285;28;20037;-91
2022/11/16 01:06:14;;;;;;;7.65;2.90;;;10.30;99.90;;;;;;5072156;28;20031;-91
2022/11/16 01:08:42;;;;;;;6.90;3.33;;;10.30;99.90;;;;;;5086091;28;20035;-92
2022/11/16 01:13:56;;;;;;;6.13;3.10;;;10.40;99.90;;;;;;5097094;28;20768;-92
2022/11/16 01:16:23;;;;;;;6.18;3.58;;;10.40;99.90;;;;;;5077532;28;20047;-92
2022/11/16 01:18:51;;;;;;;7.10;3.30;;;10.40;99.90;;;;;;5097573;28;20038;-92
2022/11/16 01:21:19;;;;;;;5.70;3.25;;;10.40;99.90;;;;;;5114907;28;20044;-92
2022/11/16 01:23:47;;;;;;;6.00;3.30;;;10.40;99.90;;;;;;5110482;28;20097;-92
2022/11/16 01:26:14;;;;;;;7.10;2.83;;;10.40;99.90;;;;;;5131375;28;20453;-92
2022/11/16 01:28:40;;;;;;;6.90;3.08;;;10.40;99.90;;;;;;5148016;28;20475;-92
2022/11/16 01:31:08;;;;;;;6.95;3.10;;;10.40;99.90;;;;;;5080943;28;20032;-91
2022/11/16 01:33:35;;;;;;;5.35;2.83;;;10.40;99.90;;;;;;5074038;28;20484;-92
2022/11/16 01:36:07;;;;;;;6.60;2.70;;;10.40;99.90;;;;;;5093660;28;20411;-91
2022/11/16 01:38:33;;;;;;;4.38;2.50;;;10.40;99.90;;;;;;5093467;28;20055;-92
2022/11/16 01:41:00;;;;;;;5.72;3.17;;;10.40;99.90;;;;;;5060927;28;20036;-92
2022/11/16 01:43:27;;;;;;;5.90;2.80;;;10.40;99.90;;;;;;5060428;28;20036;-92
2022/11/16 01:45:54;;;;;;;5.43;2.72;;;10.50;99.90;;;;;;5077260;28;20538;-92
2022/11/16 01:48:27;;;;;;;4.80;2.75;;;10.50;99.90;;;;;;5077211;28;20044;-92
2022/11/16 01:50:56;;;;;;;5.25;2.75;;;10.50;99.90;;;;;;5093774;28;20041;-93
2022/11/16 01:53:23;;;;;;;5.55;2.38;;;10.50;99.90;;;;;;5077053;28;20508;-92
2022/11/16 01:55:51;;;;;;;5.55;2.45;;;10.50;99.90;;;;;;5091473;28;20097;-92
2022/11/16 01:58:21;;;;;;;5.95;2.58;;;10.40;99.90;;;;;;5095801;28;20070;-92
2022/11/16 02:00:48;;;;;;;5.18;2.58;;;10.50;99.90;;;;;;5117582;28;20407;-92
2022/11/16 02:03:18;;;;;;;5.47;2.30;;;10.50;99.90;;;;;;5101184;28;20130;-92
2022/11/16 02:05:59;;;;;;;6.20;2.75;;;10.50;99.90;;;;;;5084323;28;20036;-91
2022/11/16 02:11:50;;;;;;;8.00;2.58;;;10.50;99.90;;;;;;5113796;28;20055;-91
2022/11/16 02:14:38;;;;;;;5.60;2.45;;;10.50;99.90;;;;;;5098455;28;20496;-90
2022/11/16 02:17:36;;;;;;;9.52;2.53;;;10.50;99.90;;;;;;5118079;28;20145;-92
2022/11/16 02:20:32;;;;;;;7.68;3.00;;;10.50;99.90;;;;;;5117393;28;20036;-91
2022/11/16 02:23:12;;;;;;;6.13;3.00;;;10.50;99.90;;;;;;5117435;28;20122;-92
2022/11/16 02:26:06;;;;;;;5.63;2.60;;;10.50;99.90;;;;;;5116928;28;20044;-91
2022/11/16 02:29:13;;;;;;;4.68;2.60;;;10.50;99.90;;;;;;5117299;28;20039;-92
2022/11/16 02:31:48;;;;;;;4.45;2.60;;;10.50;99.90;;;;;;5117528;28;20046;-92
2022/11/16 02:34:16;;;;;;;5.82;2.67;;;10.40;99.90;;;;;;5134306;28;20114;-92
2022/11/16 02:36:45;;;;;;;7.75;2.80;;;10.40;99.90;;;;;;5116591;28;20126;-90
2022/11/16 02:39:18;;;;;;;6.25;3.33;;;10.40;99.90;;;;;;5117707;28;20411;-90
2022/11/16 02:41:47;;;;;;;9.02;3.05;;;10.40;99.90;;;;;;5117039;28;20039;-94
2022/11/16 02:44:33;;;;;;;7.00;2.78;;;10.40;99.90;;;;;;5134565;28;20042;-92
2022/11/16 02:47:04;;;;;;;8.68;2.95;;;10.40;99.90;;;;;;5117370;28;20447;-93
2022/11/16 02:49:36;;;;;;;6.75;2.60;;;10.40;99.90;;;;;;5117111;28;20039;-92
2022/11/16 02:52:03;;;;;;;7.50;3.28;;;10.40;99.90;;;;;;5117364;28;20136;-91
2022/11/16 02:54:30;;;;;;;6.07;2.72;;;10.30;99.90;;;;;;5100183;28;20043;-91
2022/11/16 02:57:03;;;;;;;5.07;2.78;;;10.40;99.90;;;;;;5083581;28;20103;-92
2022/11/16 02:59:42;;;;;;;5.07;2.80;;;10.30;99.90;;;;;;5133407;28;20039;-91
2022/11/16 03:02:27;;;;;;;8.30;2.90;;;10.40;99.90;;;;;;5116993;28;20034;-92
2022/11/16 03:05:04;;;;;;;6.15;2.78;;;10.30;99.90;;;;;;5117038;28;20551;-89
2022/11/16 03:07:37;;;;;;;7.50;3.10;;;10.30;99.90;;;;;;5133155;28;20517;-91
2022/11/16 03:10:05;;;;;;;7.00;3.15;;;10.30;99.90;;;;;;5133198;28;20078;-91
2022/11/16 03:12:36;;;;;;;5.82;2.83;;;10.30;99.90;;;;;;5099463;28;20194;-91
2022/11/16 03:15:10;;;;;;;7.15;3.05;;;10.30;99.90;;;;;;5116729;28;20462;-92
2022/11/16 03:17:43;;;;;;;6.68;2.95;;;10.30;99.90;;;;;;5121212;28;20063;-92
2022/11/16 03:20:19;;;;;;;7.40;3.47;;;10.30;99.90;;;;;;5096499;28;20032;-92
2022/11/16 03:22:55;;;;;;;5.82;2.95;;;10.30;99.90;;;;;;5096375;28;20144;-92
2022/11/16 03:25:25;;;;;;;7.53;3.30;;;10.30;99.90;;;;;;5096078;28;20032;-92
2022/11/16 03:28:05;;;;;;;6.60;3.38;;;10.30;99.90;;;;;;5095720;28;20085;-92
2022/11/16 03:30:38;;;;;;;5.47;2.97;;;10.30;99.90;;;;;;5096014;28;20040;-91
2022/11/16 03:33:07;;;;;;;6.35;3.40;;;10.30;99.90;;;;;;5112824;28;20509;-91
2022/11/16 03:35:40;;;;;;;5.47;3.13;;;10.30;99.90;;;;;;5095380;28;20094;-90
2022/11/16 03:38:09;;;;;;;5.35;2.65;;;10.30;99.90;;;;;;5120498;28;20044;-92
2022/11/16 03:40:38;;;;;;;6.20;3.25;;;10.30;99.90;;;;;;5115526;28;20071;-91
2022/11/16 03:43:06;;;;;;;6.50;3.33;;;10.30;99.90;;;;;;5099463;28;20036;-92
2022/11/16 03:45:35;;;;;;;7.63;3.30;;;10.30;99.90;;;;;;5116368;28;20027;-92
2022/11/16 03:48:06;;;;;;;7.63;3.45;;;10.30;99.90;;;;;;5116550;28;20105;-91
2022/11/16 03:50:32;;;;;;;7.90;3.20;;;10.30;99.90;;;;;;5082910;28;20039;-90
2022/11/16 03:52:59;;;;;;;6.55;3.15;;;10.30;99.90;;;;;;5082121;28;20046;-92
2022/11/16 03:55:26;;;;;;;7.47;3.30;;;10.20;99.90;;;;;;5115434;28;20039;-92
2022/11/16 03:57:52;;;;;;;8.27;3.47;;;10.30;99.90;;;;;;5097501;28;20032;-92
2022/11/16 04:00:22;;;;;;;7.50;3.53;;;10.20;99.90;;;;;;5095533;28;20048;-92
2022/11/16 04:02:49;;;;;;;8.35;3.47;;;10.20;99.90;;;;;;5062291;28;20044;-92
2022/11/16 04:25:03;;;;;;;9.43;4.13;;;10.20;99.90;;;;;;5111200;28;20039;-92
2022/11/16 04:30:16;;;;;;;;;;;10.20;99.90;;;;;;5091958;28;20711;-92
2022/11/16 04:38:16;;;;;;;9.30;3.92;;;10.20;99.90;;;;;;5097012;28;20055;-92
2022/11/16 04:40:42;;;;;;;9.00;4.45;;;10.20;99.90;;;;;;5094258;28;20048;-91
2022/11/16 04:43:09;;;;;;;7.28;4.03;;;10.20;99.90;;;;;;5077916;28;20399;-92
2022/11/16 04:48:21;;;;;;;9.23;3.97;;;10.20;99.90;;;;;;5096970;28;20044;-92
2022/11/16 04:50:47;;;;;;;9.63;4.00;;;10.20;99.90;;;;;;5101697;28;20407;-91
2022/11/16 04:53:14;;;;;;;7.43;4.35;;;10.20;99.90;;;;;;5131389;28;20046;-91
2022/11/16 04:55:41;;;;;;;7.85;4.40;;;10.20;99.90;;;;;;5097921;28;20506;-91
2022/11/16 04:58:08;;;;;;;9.55;5.10;;;10.20;99.90;;;;;;5097316;28;20182;-91
2022/11/16 05:00:34;;;;;;;8.18;4.25;;;10.10;99.90;;;;;;5097453;28;20097;-91
2022/11/16 05:03:03;;;;;;;8.43;4.10;;;10.20;99.90;;;;;;5114083;28;20036;-91
2022/11/16 05:05:30;;;;;;;8.18;4.65;;;10.20;99.90;;;;;;5114287;28;20140;-91
2022/11/16 05:07:56;;;;;;;10.85;5.00;;;10.20;99.90;;;;;;5080642;28;20067;-90
2022/11/16 05:10:23;;;;;;;11.32;4.57;;;10.20;99.90;;;;;;5097558;28;20487;-89
2022/11/16 05:12:49;;;;;;;10.07;4.70;;;10.10;99.90;;;;;;5097293;28;20571;-90
2022/11/16 05:15:18;;;;;;;9.07;4.60;;;10.20;99.90;;;;;;5081080;28;20502;-91
2022/11/16 05:17:45;;;;;;;8.90;4.78;;;10.10;99.90;;;;;;5081333;28;20044;-91
2022/11/16 05:22:58;;;;;;;8.30;4.90;;;10.10;99.90;;;;;;5083258;28;20131;-91
2022/11/16 05:25:25;;;;;;;9.10;4.40;;;10.10;99.90;;;;;;5094114;28;20047;-91
2022/11/16 05:27:52;;;;;;;7.90;4.57;;;10.10;99.90;;;;;;5077211;28;20075;-90
2022/11/16 05:30:19;;;;;;;8.10;4.55;;;10.10;99.90;;;;;;5093909;28;20091;-91
2022/11/16 05:32:46;;;;;;;11.30;4.85;;;10.10;99.90;;;;;;5089278;28;20590;-91
2022/11/16 05:35:12;;;;;;;8.05;4.30;;;10.10;99.90;;;;;;5080594;28;20075;-91
2022/11/16 05:37:41;;;;;;;9.90;5.07;;;10.10;99.90;;;;;;5097190;28;20040;-92
2022/11/16 05:40:09;;;;;;;8.95;4.78;;;10.10;99.90;;;;;;5096840;28;20044;-89
2022/11/16 05:42:35;;;;;;;8.02;4.75;;;10.10;99.90;;;;;;5089969;28;20032;-92
2022/11/16 05:45:02;;;;;;;7.90;4.70;;;10.10;99.90;;;;;;5076660;28;20696;-90
2022/11/16 05:47:29;;;;;;;8.23;4.90;;;10.10;99.90;;;;;;5077050;28;20047;-91
2022/11/16 05:49:59;;;;;;;10.02;4.78;;;10.10;99.90;;;;;;5076785;28;20051;-92
2022/11/16 05:52:25;;;;;;;8.55;4.50;;;10.10;99.90;;;;;;5081539;28;20142;-91
2022/11/16 05:54:52;;;;;;;12.05;4.35;;;10.00;99.90;;;;;;5080745;28;20461;-91
2022/11/16 05:57:19;;;;;;;8.95;4.60;;;10.00;99.90;;;;;;5096692;28;20044;-91
2022/11/16 05:59:45;;;;;;;9.38;4.47;;;10.00;99.90;;;;;;5080622;28;20034;-91
2022/11/16 06:02:12;;;;;;;7.20;4.30;;;10.00;99.90;;;;;;5080170;28;20177;-90
2022/11/16 06:04:39;;;;;;;8.18;4.15;;;10.00;99.90;;;;;;5080250;28;20036;-92
2022/11/16 06:07:05;;;;;;;6.63;4.03;;;10.00;99.90;;;;;;5080161;28;20100;-91
2022/11/16 06:09:32;;;;;;;7.28;3.92;;;10.00;99.90;;;;;;5097060;28;20041;-90
2022/11/16 06:11:59;;;;;;;6.97;4.07;;;10.00;99.90;;;;;;5096698;28;20069;-90
2022/11/16 06:14:25;;;;;;;9.55;4.28;;;10.00;99.90;;;;;;5097024;28;20714;-90
2022/11/16 06:16:52;;;;;;;8.60;4.85;;;9.90;99.90;;;;;;5080498;28;20051;-91
2022/11/16 06:19:19;;;;;;;8.07;4.18;;;10.00;99.90;;;;;;5071789;28;20503;-92
2022/11/16 06:21:45;;;;;;;7.55;4.40;;;10.00;99.90;;;;;;5063829;28;20032;-91
2022/11/16 06:24:12;;;;;;;7.85;4.35;;;9.90;99.90;;;;;;5078108;28;20040;-91
2022/11/16 06:26:39;;;;;;;10.60;5.25;;;10.00;99.90;;;;;;5073343;28;20035;-91
2022/11/16 06:29:05;;;;;;;7.70;4.72;;;10.00;99.90;;;;;;5060489;28;20036;-92
2022/11/16 06:31:32;;;;;;;8.30;4.50;;;10.00;99.90;;;;;;5076018;28;20051;-92
2022/11/16 06:33:59;;;;;;;8.25;4.50;;;10.00;99.90;;;;;;5067844;28;20039;-92
2022/11/16 06:36:28;;;;;;;8.52;4.47;;;10.00;99.90;;;;;;5063059;28;20040;-91
2022/11/16 06:38:57;;;;;;;8.80;4.30;;;10.00;99.90;;;;;;5099368;28;20055;-90
2022/11/16 06:41:24;;;;;;;8.65;4.80;;;10.00;99.90;;;;;;5087326;28;20052;-92
2022/11/16 06:43:51;;;;;;;9.45;5.18;;;10.00;99.90;;;;;;5066381;28;20070;-92
2022/11/16 06:46:18;;;;;;;9.60;4.80;;;10.00;99.90;;;;;;5097015;28;20131;-91
2022/11/16 06:48:44;;;;;;;8.85;4.68;;;10.00;99.90;;;;;;5063564;28;20043;-91
2022/11/16 06:51:11;;;;;;;8.02;4.88;;;10.00;99.90;;;;;;5063744;28;20045;-92
2022/11/16 06:53:38;;;;;;;10.75;5.10;;;10.00;99.90;;;;;;5072098;28;20032;-92
2022/11/16 06:56:05;;;;;;;8.25;4.90;;;10.00;99.90;;;;;;5063838;28;20040;-91
2022/11/16 06:58:32;;;;;;;11.32;4.90;;;10.00;99.90;;;;;;5108797;28;20069;-91
2022/11/16 07:01:06;;;;;;;9.52;4.60;;;10.00;99.90;;;;;;5105276;28;20118;-91
2022/11/16 07:03:33;;;;;;;8.80;4.80;;;10.00;99.90;;;;;;5099497;28;20067;-92
2022/11/16 07:06:08;;;;;;;9.73;4.95;;;10.00;99.90;;;;;;5095480;28;20067;-92
2022/11/16 07:08:34;;;;;;;11.60;5.63;;;10.00;99.90;;;;;;5093496;28;20028;-91
2022/11/16 07:11:03;;;;;;;10.32;4.85;;;10.00;99.90;;;;;;5068059;28;20501;-92
2022/11/16 07:13:35;;;;;;;10.75;5.45;;;10.00;99.90;;;;;;5096289;28;20557;-92
2022/11/16 07:16:03;;;;;;;9.63;4.82;;;10.10;99.90;;;;;;5096778;28;20032;-91
2022/11/16 07:18:35;;;;;;;10.52;5.80;;;10.00;99.90;;;;;;5112069;28;20032;-91
2022/11/16 07:21:14;;;;;;;9.82;5.28;;;10.00;99.90;;;;;;5099263;28;20059;-88
2022/11/16 07:23:44;;;;;;;7.85;4.80;;;10.00;99.90;;;;;;5116130;28;20127;-90
2022/11/16 07:26:10;;;;;;;8.98;4.97;;;10.00;99.90;;;;;;5115547;28;20035;-91
2022/11/16 07:28:37;;;;;;;8.90;5.15;;;10.10;99.90;;;;;;5105646;28;20040;-90
2022/11/16 07:31:06;;;;;;;10.20;5.78;;;10.10;99.90;;;;;;5079719;28;20040;-90
2022/11/16 07:33:34;;;;;;;10.73;5.78;;;10.10;99.90;;;;;;5111894;28;20032;-91
2022/11/16 07:36:02;;;;;;;8.25;4.97;;;10.10;99.90;;;;;;5088968;28;20035;-90
2022/11/16 07:38:30;;;;;;;12.55;5.70;;;10.10;99.90;;;;;;5089495;28;20108;-91
2022/11/16 07:41:01;;;;;;;11.05;5.78;;;10.10;99.90;;;;;;5078919;28;20044;-91
2022/11/16 07:43:30;;;;;;;10.10;5.45;;;10.10;99.90;;;;;;5082629;28;20491;-91
2022/11/16 07:46:07;;;;;;;9.30;5.22;;;10.10;99.90;;;;;;5113645;28;20119;-92
2022/11/16 07:48:34;;;;;;;9.60;5.30;;;10.10;99.90;;;;;;5107234;28;20384;-90
2022/11/16 07:51:03;;;;;;;9.02;5.63;;;10.10;99.90;;;;;;5137892;28;20096;-91
2022/11/16 07:53:31;;;;;;;10.07;5.38;;;10.20;99.90;;;;;;5108765;28;20063;-90
2022/11/16 07:55:58;;;;;;;9.32;5.40;;;10.10;99.90;;;;;;5106243;28;20060;-90
2022/11/16 07:58:27;;;;;;;8.70;5.00;;;10.10;99.90;;;;;;5112015;28;20044;-91
2022/11/16 08:01:03;;;;;;;9.50;5.32;;;10.10;99.90;;;;;;5103476;28;20038;-91
2022/11/16 08:03:34;;;;;;;10.75;6.50;;;10.10;99.90;;;;;;5107069;28;20049;-90
2022/11/16 08:06:07;;;;;;;16.02;8.65;;;10.10;99.90;;;;;;5090985;28;20036;-90
2022/11/16 08:08:33;;;;;;;14.65;8.32;;;10.10;99.90;;;;;;5116515;28;20039;-90
2022/11/16 08:11:02;;;;;;;12.55;7.05;;;10.10;99.90;;;;;;5083839;28;20035;-92
2022/11/16 08:13:32;;;;;;;11.40;5.63;;;10.10;99.90;;;;;;5086813;28;20061;-93
2022/11/16 08:16:01;;;;;;;11.73;5.88;;;10.10;99.90;;;;;;5142130;28;20495;-91
2022/11/16 08:18:28;;;;;;;9.50;5.80;;;10.10;99.90;;;;;;5099091;28;20051;-87
2022/11/16 08:20:59;;;;;;;9.00;5.70;;;10.10;99.90;;;;;;5095981;28;20097;-85
2022/11/16 08:23:26;;;;;;;8.60;5.07;;;10.10;99.90;;;;;;5099536;28;20036;-86
2022/11/16 08:26:01;;;;;;;12.27;5.68;;;10.10;99.90;;;;;;5128961;28;20035;-85
2022/11/16 08:28:29;;;;;;;10.40;5.10;;;10.10;99.90;;;;;;5112420;28;20079;-84
2022/11/16 08:30:58;;;;;;;8.80;5.28;;;10.10;99.90;;;;;;5095545;28;20633;-84
2022/11/16 08:33:28;;;;;;;9.45;4.75;;;10.10;99.90;;;;;;5072892;28;20044;-83
2022/11/16 08:35:54;;;;;;;8.10;4.82;;;10.10;99.90;;;;;;5113528;28;20048;-83
2022/11/16 08:38:21;;;;;;;9.88;4.97;;;10.10;99.90;;;;;;5092745;28;20110;-83
2022/11/16 08:40:49;;;;;;;9.20;5.00;;;10.10;99.90;;;;;;5090473;28;20047;-83
2022/11/16 08:43:16;;;;;;;9.05;5.03;;;10.10;99.90;;;;;;5114111;28;20036;-83
2022/11/16 08:45:47;;;;;;;8.25;4.60;;;10.10;99.90;;;;;;5080390;28;20108;-84
2022/11/16 08:48:14;;;;;;;7.80;4.68;;;10.10;99.90;;;;;;5130506;28;20064;-83
2022/11/16 08:50:40;;;;;;;10.52;5.93;;;10.10;99.90;;;;;;5076657;28;20118;-82
2022/11/16 08:53:07;;;;;;;9.18;5.03;;;10.10;99.90;;;;;;5093179;28;20044;-83
2022/11/16 08:55:33;;;;;;;11.15;5.47;;;10.20;99.90;;;;;;5076521;28;20109;-83
2022/11/16 08:58:00;;;;;;;8.38;5.18;;;10.20;99.90;;;;;;5076624;28;20040;-83
2022/11/16 09:00:27;;;;;;;10.40;5.38;;;10.20;99.90;;;;;;5077642;28;20035;-83
2022/11/16 09:02:55;;;;;;;9.43;5.25;;;10.20;99.90;;;;;;5098562;28;20039;-83
2022/11/16 09:05:21;;;;;;;8.95;5.38;;;10.20;99.90;;;;;;5113190;28;20801;-83
2022/11/16 09:07:48;;;;;;;11.38;5.63;;;10.30;99.90;;;;;;5096381;28;20053;-84
2022/11/16 09:10:17;;;;;;;11.30;6.05;;;10.20;99.90;;;;;;5079535;28;20145;-82
2022/11/16 09:12:44;;;;;;;10.77;5.95;;;10.30;99.90;;;;;;5096526;28;20407;-83
2022/11/16 09:15:11;;;;;;;9.13;5.80;;;10.30;99.90;;;;;;5096633;28;20046;-83
2022/11/16 09:17:37;;;;;;;12.63;5.85;;;10.30;99.90;;;;;;5095962;28;20043;-83
2022/11/16 09:20:05;;;;;;;10.43;5.70;;;10.30;99.90;;;;;;5096453;28;20035;-83
2022/11/16 09:22:31;;;;;;;10.50;6.32;;;10.30;99.90;;;;;;5062452;28;20043;-83
2022/11/16 09:24:58;;;;;;;13.98;6.57;;;10.40;99.90;;;;;;5076210;28;20056;-83
2022/11/16 09:27:25;;;;;;;9.82;5.90;;;10.30;99.90;;;;;;5076031;28;20036;-83
2022/11/16 09:29:51;;;;;;;11.45;5.32;;;10.40;99.90;;;;;;5059658;28;20113;-83
2022/11/16 09:32:18;;;;;;;8.93;5.65;;;10.40;99.90;;;;;;5106397;28;20047;-83
2022/11/16 09:34:45;;;;;;;12.20;5.18;;;10.40;99.90;;;;;;5091947;28;20127;-84
2022/11/16 09:37:11;;;;;;;9.10;5.03;;;10.40;99.90;;;;;;5059629;28;20040;-84
2022/11/16 09:39:38;;;;;;;7.85;4.80;;;10.40;99.90;;;;;;5075726;28;20262;-84
2022/11/16 09:42:10;;;;;;;8.50;5.15;;;10.40;99.90;;;;;;5059573;28;20078;-84
2022/11/16 09:44:56;;;;;;;9.60;5.28;;;10.40;99.90;;;;;;5092672;28;20036;-84
2022/11/16 09:47:43;;;;;;;10.02;5.13;;;10.50;99.90;;;;;;5092702;28;20043;-84
2022/11/16 09:50:24;;;;;;;8.70;4.82;;;10.50;99.90;;;;;;5092557;28;20044;-84
2022/11/16 09:52:55;;;;;;;9.55;5.45;;;10.50;99.90;;;;;;5092581;28;20082;-84
2022/11/16 09:55:29;;;;;;;8.63;4.95;;;10.50;99.90;;;;;;5090365;28;20144;-84
2022/11/16 09:58:04;;;;;;;10.15;5.93;;;10.60;99.90;;;;;;5127074;28;20063;-83
2022/11/16 10:00:33;;;;;;;9.57;5.55;;;10.60;99.90;;;;;;5092144;28;20043;-84
2022/11/16 10:03:09;;;;;;;8.93;5.22;;;10.60;99.90;;;;;;5097469;28;20074;-84
2022/11/16 10:05:50;;;;;;;10.40;5.78;;;10.70;99.90;;;;;;5091910;28;20412;-83
2022/11/16 10:08:31;;;;;;;9.23;5.25;;;10.70;99.90;;;;;;5096777;28;20036;-84
2022/11/16 10:11:04;;;;;;;9.18;5.35;;;10.80;99.90;;;;;;5129560;28;20035;-84
2022/11/16 10:13:40;;;;;;;10.20;5.68;;;10.80;99.90;;;;;;5101147;28;20446;-83
2022/11/16 10:16:12;;;;;;;8.98;5.18;;;10.90;99.90;;;;;;5105858;28;20046;-84
2022/11/16 10:18:59;;;;;;;9.43;5.43;;;10.90;99.90;;;;;;5112354;28;20044;-84
2022/11/16 10:22:39;;;;;;;8.57;5.53;;;10.90;99.90;;;;;;5116314;28;20078;-83
2022/11/16 10:25:19;;;;;;;10.68;5.80;;;11.00;99.90;;;;;;4973077;28;20079;-83
2022/11/16 10:27:49;;;;;;;10.32;5.70;;;11.00;99.90;;;;;;4995979;28;20100;-84
2022/11/16 10:30:18;;;;;;;9.95;5.60;;;11.00;99.90;;;;;;5067234;28;20047;-83
2022/11/16 10:32:49;;;;;;;15.63;6.50;;;11.10;99.90;;;;;;5115794;28;20517;-84
2022/11/16 10:35:33;;;;;;;12.52;6.50;;;11.10;99.90;;;;;;5116000;28;20106;-83
2022/11/16 10:38:02;;;;;;;10.88;6.47;;;11.10;99.90;;;;;;5115902;28;20036;-83
2022/11/16 10:40:36;;;;;;;10.60;6.13;;;11.10;99.90;;;;;;5115318;28;20048;-84
2022/11/16 10:43:21;;;;;;;10.60;5.97;;;11.10;99.90;;;;;;5115429;28;20047;-84
2022/11/16 10:45:59;;;;;;;10.15;6.53;;;11.10;99.90;;;;;;5096590;28;20074;-83
2022/11/16 10:48:49;;;;;;;10.80;6.45;;;11.10;99.90;;;;;;5112343;28;20472;-84
2022/11/16 10:51:16;;;;;;;11.65;6.07;;;11.10;99.90;;;;;;5112052;28;20036;-83
2022/11/16 10:53:43;;;;;;;10.73;5.68;;;11.10;99.90;;;;;;5081282;28;20403;-84
2022/11/16 10:56:24;;;;;;;9.55;5.88;;;11.10;99.90;;;;;;5106536;28;20079;-83
2022/11/16 10:58:55;;;;;;;10.68;6.30;;;11.10;99.90;;;;;;5120167;28;20039;-82
2022/11/16 11:01:34;;;;;;;9.95;6.10;;;11.10;99.90;;;;;;5130752;28;20067;-82
2022/11/16 11:04:27;;;;;;;12.98;5.18;;;11.00;99.90;;;;;;5102130;28;20503;-82
2022/11/16 11:06:59;;;;;;;10.82;6.20;;;11.00;99.90;;;;;;5128102;28;20498;-82
2022/11/16 11:09:34;;;;;;;10.63;5.55;;;11.10;99.90;;;;;;5126345;28;20407;-82
2022/11/16 11:15:13;;;;;;;10.40;5.80;;;11.20;99.90;;;;;;5111635;28;19915;-82
2022/11/16 11:17:46;;;;;;;9.27;5.97;;;11.20;99.90;;;;;;5127543;28;20515;-82
2022/11/16 11:20:16;;;;;;;10.50;6.53;;;11.30;99.90;;;;;;5131839;28;20117;-82
2022/11/16 11:22:56;;;;;;;11.18;6.32;;;11.50;99.90;;;;;;5114844;28;20035;-82
2022/11/16 11:25:28;;;;;;;14.60;6.75;;;11.50;99.90;;;;;;5114657;28;20039;-82
2022/11/16 11:28:22;;;;;;;11.20;6.25;;;11.60;99.90;;;;;;5114990;28;20031;-82
2022/11/16 11:30:56;;;;;;;11.10;6.45;;;11.60;99.90;;;;;;5114313;28;20051;-82
2022/11/16 11:33:24;;;;;;;10.88;6.20;;;11.60;99.90;;;;;;5114983;28;20138;-82
2022/11/16 11:36:03;;;;;;;11.52;6.45;;;11.60;99.90;;;;;;5128545;28;20123;-83
2022/11/16 11:38:30;;;;;;;10.25;5.70;;;11.70;99.90;;;;;;5111008;28;20039;-82
2022/11/16 11:41:00;;;;;;;10.77;5.97;;;11.60;99.90;;;;;;5085675;28;20105;-83
2022/11/16 11:43:28;;;;;;;9.35;5.68;;;11.60;99.90;;;;;;5097165;28;20042;-82
2022/11/16 11:46:11;;;;;;;15.05;5.75;;;11.60;99.90;;;;;;5078436;28;20051;-82
2022/11/16 11:48:47;;;;;;;10.40;5.07;;;11.50;99.90;;;;;;5114440;28;20043;-82
2022/11/16 11:51:19;;;;;;;;;;;11.50;99.90;;;;;;5115486;28;20050;-82
2022/11/16 11:53:57;;;;;;;9.13;5.05;;;11.40;99.90;;;;;;5114130;28;20357;-82
2022/11/16 11:56:26;;;;;;;10.43;5.63;;;11.40;99.90;;;;;;5114321;28;20116;-82
2022/11/16 11:58:54;;;;;;;8.63;4.97;;;11.40;99.90;;;;;;5094410;28;20047;-83
2022/11/16 12:01:49;;;;;;;9.35;4.97;;;11.30;99.90;;;;;;5094054;28;20496;-83
2022/11/16 12:05:03;;;;;;;10.82;4.38;;;11.30;99.90;;;;;;5094259;28;20035;-83
2022/11/16 12:07:41;;;;;;;9.82;4.57;;;11.30;99.90;;;;;;5010155;28;20137;-83
2022/11/16 12:10:40;;;;;;;8.27;5.03;;;11.30;99.90;;;;;;5081816;28;20054;-83
2022/11/16 12:13:36;;;;;;;12.48;4.65;;;11.30;99.90;;;;;;5090596;28;20504;-83
2022/11/16 12:16:50;;;;;;;13.18;4.63;;;11.40;99.90;;;;;;5093688;28;20062;-83
2022/11/16 12:19:30;;;;;;;11.02;5.07;;;11.30;99.90;;;;;;5093622;28;20051;-83
2022/11/16 12:22:25;;;;;;;10.00;4.80;;;11.40;99.90;;;;;;5093329;28;20117;-84
2022/11/16 12:25:17;;;;;;;7.82;3.83;;;11.40;99.90;;;;;;5110172;28;20032;-84
2022/11/16 12:28:05;;;;;;;9.05;3.78;;;11.30;99.90;;;;;;5095441;28;20043;-84
2022/11/16 12:30:39;;;;;;;7.88;3.28;;;11.30;99.90;;;;;;5093388;28;20047;-83
2022/11/16 12:33:22;;;;;;;7.43;3.35;;;11.30;99.90;;;;;;5096465;28;20123;-83
2022/11/16 12:36:11;;;;;;;7.13;3.70;;;11.30;99.90;;;;;;5097321;28;20067;-83
2022/11/16 12:38:53;;;;;;;8.38;3.20;;;11.20;99.90;;;;;;5113458;28;20044;-83
2022/11/16 12:41:38;;;;;;;9.80;3.75;;;11.30;99.90;;;;;;5113564;28;20128;-89
2022/11/16 12:44:11;;;;;;;8.40;3.70;;;11.30;99.90;;;;;;5131090;28;20101;-88
2022/11/16 12:46:41;;;;;;;6.00;3.42;;;11.30;99.90;;;;;;5114275;28;20042;-90
2022/11/16 12:49:35;;;;;;;12.95;3.47;;;11.40;99.90;;;;;;5109990;28;20065;-82
2022/11/16 12:52:29;;;;;;;6.35;3.50;;;11.50;99.90;;;;;;5112650;28;20050;-82
2022/11/16 12:55:33;;;;;;;12.93;3.40;;;11.50;99.90;;;;;;5110090;28;20507;-83
2022/11/16 12:58:29;;;;;;;8.95;3.38;;;11.50;99.90;;;;;;5109139;28;20097;-82
2022/11/16 13:01:19;;;;;;;7.60;3.53;;;11.50;99.90;;;;;;5068915;28;20067;-83
2022/11/16 13:03:56;;;;;;;8.65;3.20;;;11.60;99.90;;;;;;5103991;28;20077;-83
2022/11/16 13:06:41;;;;;;;4.82;2.90;;;11.60;99.90;;;;;;5129923;28;20035;-83
2022/11/16 13:09:28;;;;;;;8.38;3.13;;;11.60;99.90;;;;;;5129816;28;20067;-83
2022/11/16 13:12:18;;;;;;;7.85;2.88;;;11.60;99.90;;;;;;5112872;28;20035;-83
2022/11/16 13:14:52;;;;;;;5.38;2.33;;;11.70;99.90;;;;;;5112675;28;20553;-85
2022/11/16 13:17:22;;;;;;;6.95;2.90;;;11.70;99.90;;;;;;5097820;28;20513;-84
2022/11/16 13:20:12;;;;;;;7.22;3.08;;;11.70;99.90;;;;;;5109154;28;20036;-84
2022/11/16 13:22:43;;;;;;;10.48;2.35;;;11.80;99.90;;;;;;5090581;28;20051;-84
2022/11/16 13:25:37;;;;;;;5.78;2.42;;;11.80;99.90;;;;;;5129367;28;20036;-84
2022/11/16 13:28:09;;;;;;;11.10;2.80;;;11.80;99.90;;;;;;5112561;28;20039;-84
2022/11/16 13:31:00;;;;;;;7.72;2.60;;;11.90;99.90;;;;;;5105123;28;20055;-83
2022/11/16 13:33:43;;;;;;;8.70;2.42;;;12.00;99.90;;;;;;5092384;28;20515;-84
2022/11/16 13:36:31;;;;;;;6.97;2.70;;;11.90;99.90;;;;;;5092154;28;20104;-83
2022/11/16 13:38:58;;;;;;;9.00;2.50;;;12.00;99.90;;;;;;5092879;28;20098;-84
2022/11/16 13:41:30;;;;;;;7.13;2.70;;;12.00;99.90;;;;;;5091985;28;20047;-83
2022/11/16 13:43:57;;;;;;;7.95;2.63;;;12.10;99.90;;;;;;5107046;28;20051;-83
2022/11/16 13:46:46;;;;;;;8.18;2.20;;;12.00;99.90;;;;;;5129204;28;20487;-84
2022/11/16 13:49:23;;;;;;;8.38;2.20;;;12.00;99.90;;;;;;5129554;28;20043;-84
2022/11/16 13:51:56;;;;;;;6.57;2.45;;;12.00;99.90;;;;;;5112495;28;20036;-84
2022/11/16 13:54:40;;;;;;;4.95;2.00;;;12.00;99.90;;;;;;5132257;28;20894;-84
2022/11/16 13:57:33;;;;;;;6.80;1.75;;;11.90;99.90;;;;;;5116286;28;20042;-83
2022/11/16 13:59:59;;;;;;;4.95;1.52;;;11.90;99.90;;;;;;5116691;28;20483;-84